sensor_id;sensor_type;location;lat;lon;timestamp;pressure;altitude;pressure_sealevel;temperature;humidity
25130;BME280;13308;50.860;13.664;2023-01-27T07:11:02;97132.28;;;-1.36;100.00
25130;BME280;13308;50.860;13.664;2023-01-27T07:13:29;97124.13;;;-1.04;100.00
25130;BME280;13308;50.860;13.664;2023-01-27T07:15:55;97120.41;;;-0.51;100.00
25130;BME280;13308;50.860;13.664;2023-01-27T07:18:20;97137.47;;;-0.39;100.00
25130;BME280;13308;50.860;13.664;2023-01-27T07:20:46;97130.91;;;-0.38;100.00
25130;BME280;13308;50.860;13.664;2023-01-27T07:23:11;97139.47;;;-0.72;100.00
25130;BME280;13308;50.860;13.664;2023-01-27T07:25:37;97135.78;;;-0.79;100.00
25130;BME280;13308;50.860;13.664;2023-01-27T07:28:04;97135.41;;;-0.90;100.00
25130;BME280;13308;50.860;13.664;2023-01-27T07:30:30;97136.78;;;-0.84;100.00
25130;BME280;13308;50.860;13.664;2023-01-27T07:33:09;97148.72;;;-0.97;100.00
25130;BME280;13308;50.860;13.664;2023-01-27T07:35:35;97147.81;;;-1.13;100.00
25130;BME280;13308;50.860;13.664;2023-01-27T07:38:01;97152.31;;;-1.05;100.00
25130;BME280;13308;50.860;13.664;2023-01-27T07:40:26;97151.59;;;-1.14;100.00
25130;BME280;13308;50.860;13.664;2023-01-27T07:42:51;97153.63;;;-1.23;100.00
25130;BME280;13308;50.860;13.664;2023-01-27T07:45:18;97148.38;;;-1.07;100.00
25130;BME280;13308;50.860;13.664;2023-01-27T07:47:43;97153.88;;;-1.16;100.00
25130;BME280;13308;50.860;13.664;2023-01-27T07:50:09;97160.03;;;-1.27;100.00
25130;BME280;13308;50.860;13.664;2023-01-27T07:52:36;97161.28;;;-1.25;100.00
25130;BME280;13308;50.860;13.664;2023-01-27T07:55:01;97165.66;;;-1.32;100.00
25130;BME280;13308;50.860;13.664;2023-01-27T07:57:27;97161.53;;;-1.18;100.00
25130;BME280;13308;50.860;13.664;2023-01-27T07:59:52;97156.13;;;-1.18;100.00
25130;BME280;13308;50.860;13.664;2023-01-27T08:02:20;97164.69;;;-1.16;100.00
25130;BME280;13308;50.860;13.664;2023-01-27T08:04:49;97160.41;;;-1.17;100.00
25130;BME280;13308;50.860;13.664;2023-01-27T08:07:15;97170.22;;;-1.12;100.00
25130;BME280;13308;50.860;13.664;2023-01-27T08:09:40;97168.53;;;-1.17;100.00
25130;BME280;13308;50.860;13.664;2023-01-27T08:12:05;97162.19;;;-1.21;100.00
25130;BME280;13308;50.860;13.664;2023-01-27T08:14:31;97162.88;;;-1.24;100.00
25130;BME280;13308;50.860;13.664;2023-01-27T08:16:56;97173.81;;;-1.20;100.00
25130;BME280;13308;50.860;13.664;2023-01-27T08:19:21;97178.66;;;-1.14;100.00
25130;BME280;13308;50.860;13.664;2023-01-27T08:21:46;97171.69;;;-1.15;100.00
25130;BME280;13308;50.860;13.664;2023-01-27T08:24:12;97169.09;;;-1.11;100.00
25130;BME280;13308;50.860;13.664;2023-01-27T08:26:37;97163.59;;;-1.03;100.00
25130;BME280;13308;50.860;13.664;2023-01-27T08:29:03;97161.59;;;-0.94;100.00
25130;BME280;13308;50.860;13.664;2023-01-27T08:31:28;97162.47;;;-0.90;100.00
25130;BME280;13308;50.860;13.664;2023-01-27T08:33:53;97176.69;;;-0.93;100.00
25130;BME280;13308;50.860;13.664;2023-01-27T08:36:20;97173.31;;;-0.90;100.00
25130;BME280;13308;50.860;13.664;2023-01-27T08:38:47;97167.34;;;-0.83;100.00
25130;BME280;13308;50.860;13.664;2023-01-27T08:41:19;97171.06;;;-0.88;100.00
25130;BME280;13308;50.860;13.664;2023-01-27T08:43:45;97171.31;;;-0.81;100.00
25130;BME280;13308;50.860;13.664;2023-01-27T08:46:10;97179.09;;;-0.79;100.00
25130;BME280;13308;50.860;13.664;2023-01-27T08:48:36;97173.09;;;-0.73;100.00
25130;BME280;13308;50.860;13.664;2023-01-27T08:51:03;97187.34;;;-0.64;100.00
25130;BME280;13308;50.860;13.664;2023-01-27T08:53:29;97187.22;;;-0.79;100.00
25130;BME280;13308;50.860;13.664;2023-01-27T08:56:01;97194.09;;;-0.82;100.00
25130;BME280;13308;50.860;13.664;2023-01-27T08:58:26;97181.22;;;-0.85;100.00
25130;BME280;13308;50.860;13.664;2023-01-27T09:00:52;97180.09;;;-0.84;100.00
25130;BME280;13308;50.860;13.664;2023-01-27T09:03:17;97189.34;;;-0.85;100.00
25130;BME280;13308;50.860;13.664;2023-01-27T09:05:43;97191.38;;;-0.82;100.00
25130;BME280;13308;50.860;13.664;2023-01-27T09:08:09;97185.28;;;-0.79;100.00
25130;BME280;13308;50.860;13.664;2023-01-27T09:10:41;97192.97;;;-0.81;100.00
25130;BME280;13308;50.860;13.664;2023-01-27T09:13:07;97193.50;;;-0.87;100.00
25130;BME280;13308;50.860;13.664;2023-01-27T09:15:35;97205.22;;;-0.95;100.00
25130;BME280;13308;50.860;13.664;2023-01-27T09:18:02;97204.41;;;-0.96;100.00
25130;BME280;13308;50.860;13.664;2023-01-27T09:20:27;97204.22;;;-0.91;100.00
25130;BME280;13308;50.860;13.664;2023-01-27T09:22:55;97206.59;;;-0.77;100.00
25130;BME280;13308;50.860;13.664;2023-01-27T09:25:21;97212.81;;;-0.89;100.00
25130;BME280;13308;50.860;13.664;2023-01-27T09:27:46;97203.75;;;-0.93;100.00
25130;BME280;13308;50.860;13.664;2023-01-27T09:30:13;97210.31;;;-0.94;100.00
25130;BME280;13308;50.860;13.664;2023-01-27T09:32:39;97213.22;;;-0.99;100.00
25130;BME280;13308;50.860;13.664;2023-01-27T09:35:06;97216.69;;;-0.98;100.00
25130;BME280;13308;50.860;13.664;2023-01-27T09:37:33;97219.03;;;-1.09;100.00
25130;BME280;13308;50.860;13.664;2023-01-27T09:40:10;97217.44;;;-1.22;100.00
25130;BME280;13308;50.860;13.664;2023-01-27T09:42:53;97217.91;;;-1.08;100.00
25130;BME280;13308;50.860;13.664;2023-01-27T09:48:12;97227.75;;;-1.03;100.00
25130;BME280;13308;50.860;13.664;2023-01-27T09:53:53;97233.69;;;-1.10;100.00
25130;BME280;13308;50.860;13.664;2023-01-27T09:56:24;97231.03;;;-0.98;100.00
25130;BME280;13308;50.860;13.664;2023-01-27T10:02:11;97229.34;;;-1.02;100.00
25130;BME280;13308;50.860;13.664;2023-01-27T10:04:55;97228.53;;;-1.03;100.00
25130;BME280;13308;50.860;13.664;2023-01-27T10:07:51;97233.28;;;-1.00;100.00
25130;BME280;13308;50.860;13.664;2023-01-27T10:10:51;97225.63;;;-0.98;100.00
25130;BME280;13308;50.860;13.664;2023-01-27T10:18:44;97221.38;;;-0.87;100.00
25130;BME280;13308;50.860;13.664;2023-01-27T10:21:37;97220.94;;;-0.77;100.00
25130;BME280;13308;50.860;13.664;2023-01-27T10:24:28;97231.09;;;-0.74;100.00
25130;BME280;13308;50.860;13.664;2023-01-27T10:29:46;97221.59;;;-0.80;100.00
25130;BME280;13308;50.860;13.664;2023-01-27T10:32:25;97226.91;;;-0.83;100.00
25130;BME280;13308;50.860;13.664;2023-01-27T10:35:15;97220.16;;;-0.77;100.00
25130;BME280;13308;50.860;13.664;2023-01-27T10:40:41;97220.59;;;-0.75;100.00
25130;BME280;13308;50.860;13.664;2023-01-27T10:43:32;97230.09;;;-0.69;100.00
25130;BME280;13308;50.860;13.664;2023-01-27T10:46:15;97222.06;;;-0.66;100.00
25130;BME280;13308;50.860;13.664;2023-01-27T10:51:37;97226.94;;;-0.71;100.00
25130;BME280;13308;50.860;13.664;2023-01-27T10:54:13;97229.28;;;-0.82;100.00
25130;BME280;13308;50.860;13.664;2023-01-27T10:56:47;97223.63;;;-0.89;100.00
25130;BME280;13308;50.860;13.664;2023-01-27T10:59:41;97225.44;;;-0.81;100.00
25130;BME280;13308;50.860;13.664;2023-01-27T11:02:20;97221.59;;;-0.80;100.00
25130;BME280;13308;50.860;13.664;2023-01-27T11:04:56;97224.53;;;-0.85;100.00
25130;BME280;13308;50.860;13.664;2023-01-27T11:07:24;97227.03;;;-0.80;100.00
25130;BME280;13308;50.860;13.664;2023-01-27T11:10:16;97218.25;;;-0.77;100.00
25130;BME280;13308;50.860;13.664;2023-01-27T11:12:46;97224.56;;;-0.61;100.00
25130;BME280;13308;50.860;13.664;2023-01-27T11:15:24;97221.31;;;-0.66;100.00
25130;BME280;13308;50.860;13.664;2023-01-27T11:18:00;97213.97;;;-0.54;100.00
25130;BME280;13308;50.860;13.664;2023-01-27T11:20:31;97213.31;;;-0.51;100.00
25130;BME280;13308;50.860;13.664;2023-01-27T11:28:50;97224.16;;;-0.27;100.00
25130;BME280;13308;50.860;13.664;2023-01-27T11:31:41;97222.91;;;-0.17;100.00
25130;BME280;13308;50.860;13.664;2023-01-27T11:34:23;97210.81;;;-0.20;100.00
25130;BME280;13308;50.860;13.664;2023-01-27T11:36:50;97221.22;;;-0.22;100.00
25130;BME280;13308;50.860;13.664;2023-01-27T11:39:16;97221.22;;;-0.22;100.00
25130;BME280;13308;50.860;13.664;2023-01-27T11:41:54;97222.91;;;-0.17;100.00
25130;BME280;13308;50.860;13.664;2023-01-27T11:44:27;97223.47;;;-0.12;100.00
25130;BME280;13308;50.860;13.664;2023-01-27T11:46:54;97226.97;;;-0.12;100.00
25130;BME280;13308;50.860;13.664;2023-01-27T11:49:29;97218.28;;;-0.17;100.00
25130;BME280;13308;50.860;13.664;2023-01-27T11:52:01;97226.63;;;-0.22;100.00
25130;BME280;13308;50.860;13.664;2023-01-27T11:54:41;97214.88;;;-0.14;100.00
25130;BME280;13308;50.860;13.664;2023-01-27T11:57:17;97215.31;;;-0.12;100.00
25130;BME280;13308;50.860;13.664;2023-01-27T11:59:44;97218.84;;;-0.23;100.00
25130;BME280;13308;50.860;13.664;2023-01-27T12:02:18;97217.16;;;-0.28;100.00
25130;BME280;13308;50.860;13.664;2023-01-27T12:04:56;97210.38;;;-0.34;100.00
25130;BME280;13308;50.860;13.664;2023-01-27T12:07:35;97209.91;;;-0.24;100.00
25130;BME280;13308;50.860;13.664;2023-01-27T12:10:20;97206.09;;;-0.35;100.00
25130;BME280;13308;50.860;13.664;2023-01-27T12:12:45;97204.97;;;-0.46;100.00
25130;BME280;13308;50.860;13.664;2023-01-27T12:15:14;97199.75;;;-0.39;100.00
25130;BME280;13308;50.860;13.664;2023-01-27T12:17:42;97190.28;;;-0.45;100.00
25130;BME280;13308;50.860;13.664;2023-01-27T12:20:27;97199.31;;;-0.41;100.00
25130;BME280;13308;50.860;13.664;2023-01-27T12:22:58;97193.53;;;-0.39;100.00
25130;BME280;13308;50.860;13.664;2023-01-27T12:25:27;97202.47;;;-0.27;100.00
25130;BME280;13308;50.860;13.664;2023-01-27T12:27:58;97198.75;;;-0.22;100.00
25130;BME280;13308;50.860;13.664;2023-01-27T12:30:29;97195.16;;;-0.38;100.00
25130;BME280;13308;50.860;13.664;2023-01-27T12:32:57;97191.41;;;-0.34;100.00
25130;BME280;13308;50.860;13.664;2023-01-27T12:35:26;97191.53;;;-0.30;100.00
25130;BME280;13308;50.860;13.664;2023-01-27T12:38:06;97189.84;;;-0.35;100.00
25130;BME280;13308;50.860;13.664;2023-01-27T12:40:39;97189.38;;;-0.25;100.00
25130;BME280;13308;50.860;13.664;2023-01-27T12:45:35;97180.78;;;-0.27;100.00
25130;BME280;13308;50.860;13.664;2023-01-27T12:48:14;97181.25;;;-0.25;100.00
25130;BME280;13308;50.860;13.664;2023-01-27T12:51:14;97186.00;;;-0.22;100.00
25130;BME280;13308;50.860;13.664;2023-01-27T12:53:39;97186.88;;;-0.30;100.00
25130;BME280;13308;50.860;13.664;2023-01-27T12:56:17;97181.47;;;-0.30;100.00
25130;BME280;13308;50.860;13.664;2023-01-27T13:03:44;97163.97;;;-0.20;100.00
25130;BME280;13308;50.860;13.664;2023-01-27T13:06:15;97175.81;;;-0.13;100.00
25130;BME280;13308;50.860;13.664;2023-01-27T13:08:41;97173.56;;;-0.11;100.00
25130;BME280;13308;50.860;13.664;2023-01-27T13:11:07;97169.50;;;-0.17;100.00
25130;BME280;13308;50.860;13.664;2023-01-27T13:13:32;97173.31;;;-0.18;100.00
25130;BME280;13308;50.860;13.664;2023-01-27T13:16:06;97171.75;;;-0.19;100.00
25130;BME280;13308;50.860;13.664;2023-01-27T13:18:38;97179.66;;;-0.14;100.00
25130;BME280;13308;50.860;13.664;2023-01-27T13:21:11;97174.94;;;-0.17;100.00
25130;BME280;13308;50.860;13.664;2023-01-27T13:23:38;97185.31;;;-0.31;100.00
25130;BME280;13308;50.860;13.664;2023-01-27T13:28:40;97184.66;;;-0.28;100.00
25130;BME280;13308;50.860;13.664;2023-01-27T13:31:12;97191.41;;;-0.22;100.00
25130;BME280;13308;50.860;13.664;2023-01-27T13:34:04;97187.13;;;-0.23;100.00
25130;BME280;13308;50.860;13.664;2023-01-27T13:36:58;97183.06;;;-0.29;100.00
25130;BME280;13308;50.860;13.664;2023-01-27T13:42:40;97194.13;;;-0.22;100.00
25130;BME280;13308;50.860;13.664;2023-01-27T13:45:52;97192.66;;;-0.19;100.00
25130;BME280;13308;50.860;13.664;2023-01-27T13:48:28;97186.00;;;-0.22;100.00
25130;BME280;13308;50.860;13.664;2023-01-27T13:53:29;97187.13;;;-0.23;100.00
25130;BME280;13308;50.860;13.664;2023-01-27T14:01:47;97182.13;;;-0.09;100.00
25130;BME280;13308;50.860;13.664;2023-01-27T14:04:38;97183.72;;;-0.08;100.00
25130;BME280;13308;50.860;13.664;2023-01-27T14:07:28;97181.69;;;0.01;100.00
25130;BME280;13308;50.860;13.664;2023-01-27T14:10:24;97189.72;;;-0.03;100.00
25130;BME280;13308;50.860;13.664;2023-01-27T14:18:38;97191.84;;;-0.08;100.00
25130;BME280;13308;50.860;13.664;2023-01-27T14:23:54;97204.47;;;-0.12;100.00
25130;BME280;13308;50.860;13.664;2023-01-27T14:26:51;97212.63;;;-0.12;100.00
25130;BME280;13308;50.860;13.664;2023-01-27T14:29:27;97213.53;;;-0.20;100.00
25130;BME280;13308;50.860;13.664;2023-01-27T14:32:17;97223.00;;;-0.14;100.00
25130;BME280;13308;50.860;13.664;2023-01-27T14:38:33;97219.28;;;-0.10;100.00
25130;BME280;13308;50.860;13.664;2023-01-27T14:40:47;97220.75;;;-0.12;100.00
25130;BME280;13308;50.860;13.664;2023-01-27T14:48:50;97230.00;;;-0.25;100.00
25130;BME280;13308;50.860;13.664;2023-01-27T14:51:43;97234.53;;;-0.29;100.00
25130;BME280;13308;50.860;13.664;2023-01-27T14:57:21;97243.34;;;-0.32;100.00
25130;BME280;13308;50.860;13.664;2023-01-27T15:00:14;97239.84;;;-0.32;100.00
25130;BME280;13308;50.860;13.664;2023-01-27T15:02:46;97247.63;;;-0.19;100.00
25130;BME280;13308;50.860;13.664;2023-01-27T15:05:29;97246.63;;;-0.26;100.00
25130;BME280;13308;50.860;13.664;2023-01-27T15:16:58;97257.31;;;-0.30;100.00
25130;BME280;13308;50.860;13.664;2023-01-27T15:19:43;97260.50;;;-0.28;100.00
25130;BME280;13308;50.860;13.664;2023-01-27T15:22:40;97262.75;;;-0.30;100.00
25130;BME280;13308;50.860;13.664;2023-01-27T15:27:47;97263.66;;;-0.26;100.00
25130;BME280;13308;50.860;13.664;2023-01-27T15:30:36;97267.50;;;-0.27;100.00
25130;BME280;13308;50.860;13.664;2023-01-27T15:44:16;97269.09;;;-0.26;100.00
25130;BME280;13308;50.860;13.664;2023-01-27T15:46:49;97266.81;;;-0.24;100.00
25130;BME280;13308;50.860;13.664;2023-01-27T15:49:21;97267.50;;;-0.27;100.00
25130;BME280;13308;50.860;13.664;2023-01-27T15:51:50;97267.06;;;-0.29;100.00
25130;BME280;13308;50.860;13.664;2023-01-27T15:54:23;97259.38;;;-0.27;100.00
25130;BME280;13308;50.860;13.664;2023-01-27T15:56:52;97264.09;;;-0.24;100.00
25130;BME280;13308;50.860;13.664;2023-01-27T15:59:24;97268.88;;;-0.21;100.00
25130;BME280;13308;50.860;13.664;2023-01-27T16:02:13;97274.16;;;-0.24;100.00
25130;BME280;13308;50.860;13.664;2023-01-27T16:04:39;97276.06;;;-0.25;100.00
25130;BME280;13308;50.860;13.664;2023-01-27T16:07:17;97267.72;;;-0.20;100.00
25130;BME280;13308;50.860;13.664;2023-01-27T16:09:46;97270.44;;;-0.20;100.00
25130;BME280;13308;50.860;13.664;2023-01-27T16:14:47;97271.81;;;-0.14;100.00
25130;BME280;13308;50.860;13.664;2023-01-27T16:17:16;97270.56;;;-0.17;100.00
25130;BME280;13308;50.860;13.664;2023-01-27T16:19:52;97269.53;;;-0.12;100.00
25130;BME280;13308;50.860;13.664;2023-01-27T16:22:20;97273.03;;;-0.12;100.00
25130;BME280;13308;50.860;13.664;2023-01-27T16:24:56;97272.59;;;-0.13;100.00
25130;BME280;13308;50.860;13.664;2023-01-27T16:27:46;97274.06;;;-0.16;100.00
25130;BME280;13308;50.860;13.664;2023-01-27T16:30:24;97268.88;;;-0.09;100.00
25130;BME280;13308;50.860;13.664;2023-01-27T16:35:31;97270.44;;;-0.08;100.00
25130;BME280;13308;50.860;13.664;2023-01-27T16:38:07;97267.06;;;-0.05;100.00
25130;BME280;13308;50.860;13.664;2023-01-27T16:40:38;97272.25;;;-0.12;100.00
25130;BME280;13308;50.860;13.664;2023-01-27T16:43:13;97271.81;;;-0.14;100.00
25130;BME280;13308;50.860;13.664;2023-01-27T16:45:45;97270.22;;;-0.15;100.00
25130;BME280;13308;50.860;13.664;2023-01-27T16:48:21;97281.19;;;-0.12;100.00
25130;BME280;13308;50.860;13.664;2023-01-27T16:50:50;97277.66;;;-0.12;100.00
25130;BME280;13308;50.860;13.664;2023-01-27T16:53:24;97278.13;;;-0.10;100.00
25130;BME280;13308;50.860;13.664;2023-01-27T16:56:04;97284.44;;;-0.06;100.00
25130;BME280;13308;50.860;13.664;2023-01-27T16:58:30;97285.25;;;-0.06;100.00
25130;BME280;13308;50.860;13.664;2023-01-27T17:00:57;97292.13;;;-0.08;100.00
25130;BME280;13308;50.860;13.664;2023-01-27T17:03:37;97294.63;;;-0.03;100.00
25130;BME280;13308;50.860;13.664;2023-01-27T17:06:08;97294.72;;;-0.12;100.00
25130;BME280;13308;50.860;13.664;2023-01-27T17:08:46;97282.75;;;-0.11;100.00
25130;BME280;13308;50.860;13.664;2023-01-27T17:11:28;97294.72;;;-0.12;100.00
25130;BME280;13308;50.860;13.664;2023-01-27T17:14:02;97289.63;;;-0.13;100.00
25130;BME280;13308;50.860;13.664;2023-01-27T17:16:34;97292.81;;;-0.11;100.00
25130;BME280;13308;50.860;13.664;2023-01-27T17:19:22;97295.97;;;-0.09;100.00
25130;BME280;13308;50.860;13.664;2023-01-27T17:21:56;97297.00;;;-0.02;100.00
25130;BME280;13308;50.860;13.664;2023-01-27T17:24:31;97296.88;;;-0.05;100.00
25130;BME280;13308;50.860;13.664;2023-01-27T17:27:07;97296.88;;;0.07;100.00
25130;BME280;13308;50.860;13.664;2023-01-27T17:29:38;97296.31;;;0.01;100.00
25130;BME280;13308;50.860;13.664;2023-01-27T17:32:21;97298.56;;;-0.01;100.00
25130;BME280;13308;50.860;13.664;2023-01-27T17:34:53;97295.28;;;-0.06;100.00
25130;BME280;13308;50.860;13.664;2023-01-27T17:37:21;97300.97;;;0.01;100.00
25130;BME280;13308;50.860;13.664;2023-01-27T17:39:54;97304.53;;;-0.07;100.00
25130;BME280;13308;50.860;13.664;2023-01-27T17:42:20;97302.53;;;-0.10;100.00
25130;BME280;13308;50.860;13.664;2023-01-27T17:44:48;97308.28;;;-0.12;100.00
25130;BME280;13308;50.860;13.664;2023-01-27T17:47:17;97308.41;;;-0.08;100.00
25130;BME280;13308;50.860;13.664;2023-01-27T17:49:44;97320.59;;;-0.14;100.00
25130;BME280;13308;50.860;13.664;2023-01-27T17:52:15;97316.97;;;-0.06;100.00
25130;BME280;13308;50.860;13.664;2023-01-27T17:54:42;97323.41;;;0.01;100.00
25130;BME280;13308;50.860;13.664;2023-01-27T17:57:15;97324.44;;;-0.15;100.00
25130;BME280;13308;50.860;13.664;2023-01-27T18:02:50;97319.22;;;-0.20;100.00
25130;BME280;13308;50.860;13.664;2023-01-27T18:05:21;97321.38;;;-0.13;100.00
25130;BME280;13308;50.860;13.664;2023-01-27T18:07:48;97322.72;;;-0.19;100.00
25130;BME280;13308;50.860;13.664;2023-01-27T18:12:53;97325.88;;;-0.17;100.00
25130;BME280;13308;50.860;13.664;2023-01-27T18:18:26;97330.28;;;-0.25;100.00
25130;BME280;13308;50.860;13.664;2023-01-27T18:23:26;97330.28;;;-0.25;100.00
25130;BME280;13308;50.860;13.664;2023-01-27T18:26:19;97334.13;;;-0.26;100.00
25130;BME280;13308;50.860;13.664;2023-01-27T18:28:49;97324.75;;;-0.17;100.00
25130;BME280;13308;50.860;13.664;2023-01-27T18:31:19;97321.94;;;-0.20;100.00
25130;BME280;13308;50.860;13.664;2023-01-27T18:33:57;97331.19;;;-0.21;100.00
25130;BME280;13308;50.860;13.664;2023-01-27T18:36:28;97342.56;;;-0.28;100.00
25130;BME280;13308;50.860;13.664;2023-01-27T18:38:57;97335.56;;;-0.28;100.00
25130;BME280;13308;50.860;13.664;2023-01-27T18:41:25;97333.19;;;-0.30;100.00
25130;BME280;13308;50.860;13.664;2023-01-27T18:43:52;97345.88;;;-0.22;100.00
25130;BME280;13308;50.860;13.664;2023-01-27T18:46:18;97353.44;;;-0.16;100.00
25130;BME280;13308;50.860;13.664;2023-01-27T18:48:43;97357.03;;;-0.23;100.00
25130;BME280;13308;50.860;13.664;2023-01-27T18:51:15;97360.31;;;-0.18;100.00
25130;BME280;13308;50.860;13.664;2023-01-27T18:53:40;97358.06;;;-0.28;100.00
25130;BME280;13308;50.860;13.664;2023-01-27T18:56:06;97348.69;;;-0.30;100.00
25130;BME280;13308;50.860;13.664;2023-01-27T18:58:33;97362.22;;;-0.30;100.00
25130;BME280;13308;50.860;13.664;2023-01-27T19:00:59;97354.22;;;-0.27;100.00
25130;BME280;13308;50.860;13.664;2023-01-27T19:03:26;97355.91;;;-0.22;100.00
25130;BME280;13308;50.860;13.664;2023-01-27T19:05:53;97350.50;;;-0.22;100.00
25130;BME280;13308;50.860;13.664;2023-01-27T19:08:20;97353.53;;;-0.24;100.00
25130;BME280;13308;50.860;13.664;2023-01-27T19:10:47;97352.31;;;-0.26;100.00
25130;BME280;13308;50.860;13.664;2023-01-27T19:13:13;97357.56;;;-0.30;100.00
25130;BME280;13308;50.860;13.664;2023-01-27T19:15:50;97346.53;;;-0.25;100.00
25130;BME280;13308;50.860;13.664;2023-01-27T19:18:28;97348.59;;;-0.22;100.00
25130;BME280;13308;50.860;13.664;2023-01-27T19:20:55;97354.88;;;-0.30;100.00
25130;BME280;13308;50.860;13.664;2023-01-27T19:23:20;97365.72;;;-0.30;100.00
